createdAt,value
2024-01-01T00:01:50.267Z,113.22
2024-01-01T00:04:17.976Z,75.66
2024-01-01T00:06:47.023Z,597.47
2024-01-01T00:09:14.819Z,5189.13
2024-01-01T00:11:44.988Z,997.04
2024-01-01T00:14:14.032Z,128.02
2024-01-01T00:16:41.825Z,44.56
2024-01-01T00:19:09.671Z,54.28
2024-01-01T00:21:37.383Z,67.50
2024-01-01T00:24:07.118Z,49.04
2024-01-01T00:26:34.764Z,144.59
2024-01-01T00:29:02.592Z,253.82
2024-01-01T00:31:30.695Z,118.31
2024-01-01T00:33:58.597Z,94.36
2024-01-01T00:36:26.387Z,236.63
2024-01-01T00:38:54.061Z,541.61
2024-01-01T00:41:23.051Z,867.66
2024-01-01T00:43:50.762Z,758.77
2024-01-01T00:46:18.441Z,1321.24
2024-01-01T00:48:46.262Z,1737.05
2024-01-01T00:51:14.017Z,602.54
2024-01-01T00:53:41.652Z,26.48
2024-01-01T00:56:09.305Z,36.50
2024-01-01T00:58:38.435Z,46.24
2024-01-01T01:01:06.159Z,676.21
2024-01-01T01:03:34.452Z,292.26
2024-01-01T01:06:10.937Z,87.43
2024-01-01T01:08:42.319Z,906.54
2024-01-01T01:11:10.119Z,1360.46
2024-01-01T01:13:39.311Z,237.69
2024-01-01T01:16:07.234Z,168.66
2024-01-01T01:18:34.970Z,83.19
2024-01-01T01:21:02.707Z,43.66
2024-01-01T01:23:30.349Z,83.86
2024-01-01T01:25:58.020Z,71.24
2024-01-01T01:28:25.861Z,111.89
2024-01-01T01:30:54.928Z,143.66
2024-01-01T01:33:22.833Z,2694.52
2024-01-01T01:35:50.551Z,1305.68
2024-01-01T01:38:18.346Z,37.28
2024-01-01T01:40:46.049Z,68.09
2024-01-01T01:43:24.394Z,68.13
2024-01-01T01:45:53.106Z,1614.90
2024-01-01T01:48:22.715Z,3398.60
2024-01-01T01:50:51.560Z,52.27
2024-01-01T01:53:20.195Z,27.45
2024-01-01T01:55:47.945Z,55.67
2024-01-01T01:58:15.782Z,861.29
2024-01-01T02:00:43.977Z,1919.40
2024-01-01T02:03:12.325Z,1149.25
2024-01-01T02:05:41.550Z,4040.28
2024-01-01T02:08:10.572Z,1661.50
2024-01-01T02:10:38.798Z,2770.10
2024-01-01T02:13:06.546Z,2163.24
2024-01-01T02:15:34.246Z,1463.51
2024-01-01T02:18:02.038Z,950.32
2024-01-01T02:20:29.794Z,868.85
2024-01-01T02:22:58.866Z,1540.12
2024-01-01T02:25:26.552Z,89.79
2024-01-01T02:27:54.181Z,1080.89
2024-01-01T02:30:21.833Z,45.17
2024-01-01T02:32:49.486Z,1833.50
2024-01-01T02:35:17.559Z,1735.01
2024-01-01T02:37:45.299Z,3136.27
2024-01-01T02:40:14.567Z,1646.40
2024-01-01T02:42:42.270Z,4384.89
2024-01-01T02:45:11.054Z,984.47
2024-01-01T02:47:38.969Z,3114.53
2024-01-01T02:50:07.615Z,2892.88
2024-01-01T02:52:35.389Z,2056.92
2024-01-01T02:55:03.223Z,3036.69
2024-01-01T02:57:32.267Z,42.75
2024-01-01T02:59:59.911Z,1924.66
2024-01-01T03:02:27.551Z,205.58
2024-01-01T03:04:55.399Z,1365.42
2024-01-01T03:07:23.100Z,16.54
2024-01-01T03:09:50.702Z,37.76
2024-01-01T03:12:19.453Z,84.87
2024-01-01T03:14:48.703Z,59.78
2024-01-01T03:17:16.587Z,71.79
2024-01-01T03:19:44.801Z,230.78
2024-01-01T03:22:12.555Z,643.74
2024-01-01T03:24:40.215Z,1385.06
2024-01-01T03:27:07.881Z,3439.19
2024-01-01T03:29:35.531Z,1475.21
2024-01-01T03:32:05.486Z,1993.74
2024-01-01T03:34:33.307Z,3197.65
2024-01-01T03:37:01.056Z,3261.13
2024-01-01T03:39:29.195Z,4444.24
2024-01-01T03:41:56.941Z,3077.49
2024-01-01T03:44:24.637Z,4153.04
2024-01-01T03:46:52.375Z,2045.41
2024-01-01T03:49:21.570Z,685.83
2024-01-01T03:51:49.315Z,3760.55
2024-01-01T03:54:16.968Z,5856.80
2024-01-01T03:56:44.931Z,6358.71
2024-01-01T03:59:12.853Z,3871.22
2024-01-01T04:01:40.688Z,3629.50
2024-01-01T04:04:08.445Z,7614.03
2024-01-01T04:06:37.514Z,5474.67
2024-01-01T04:09:05.232Z,7142.55
2024-01-01T04:11:32.980Z,4125.67
2024-01-01T04:14:00.801Z,3998.57
2024-01-01T04:16:28.508Z,3108.71
2024-01-01T04:18:56.244Z,1318.46
2024-01-01T04:21:23.943Z,677.50
2024-01-01T04:23:52.942Z,1932.50
2024-01-01T04:26:20.621Z,959.80
2024-01-01T04:28:48.300Z,123.67
2024-01-01T04:31:15.961Z,365.80
2024-01-01T04:33:43.623Z,84.77
2024-01-01T04:36:11.248Z,140.93
2024-01-01T04:38:38.879Z,261.41
2024-01-01T04:41:07.950Z,107.70
2024-01-01T04:43:35.726Z,102.01
2024-01-01T04:46:03.713Z,62.04
2024-01-01T04:48:31.410Z,434.03
2024-01-01T04:50:59.124Z,96.59
2024-01-01T04:53:27.066Z,552.88
2024-01-01T04:55:54.813Z,676.47
2024-01-01T04:58:23.871Z,47.91
2024-01-01T05:00:51.566Z,1284.12
2024-01-01T05:03:19.294Z,1276.37
2024-01-01T05:05:47.006Z,271.76
2024-01-01T05:08:14.766Z,104.68
2024-01-01T05:10:42.470Z,219.34
2024-01-01T05:13:10.173Z,723.30
2024-01-01T05:15:39.159Z,71.16
2024-01-01T05:18:07.363Z,77.67
2024-01-01T05:20:35.341Z,28.77
2024-01-01T05:23:03.031Z,64.15
2024-01-01T05:25:30.674Z,47.46
2024-01-01T05:27:58.325Z,44.78
2024-01-01T05:30:26.017Z,195.74
2024-01-01T05:32:55.138Z,719.97
2024-01-01T05:35:22.872Z,275.94
2024-01-01T05:37:50.593Z,683.87
2024-01-01T05:40:18.268Z,784.25
2024-01-01T05:42:45.910Z,277.66
2024-01-01T05:45:13.656Z,47.18
2024-01-01T05:47:41.326Z,640.99
2024-01-01T05:50:10.810Z,373.92
2024-01-01T05:52:38.632Z,514.39
2024-01-01T05:55:06.944Z,1342.60
2024-01-01T05:57:35.281Z,954.33
2024-01-01T06:00:03.324Z,161.09
2024-01-01T06:02:31.002Z,4385.59
2024-01-01T06:04:58.738Z,2268.70
2024-01-01T06:07:27.903Z,1011.14
2024-01-01T06:09:55.561Z,1750.95
2024-01-01T06:12:23.206Z,877.55
2024-01-01T06:14:50.982Z,566.75
2024-01-01T06:17:20.369Z,821.76
2024-01-01T06:19:48.196Z,259.56
2024-01-01T06:22:15.866Z,41.83
2024-01-01T06:24:45.288Z,2747.09
2024-01-01T06:27:13.035Z,433.58
2024-01-01T06:29:40.644Z,62.31
2024-01-01T06:32:08.364Z,141.13
2024-01-01T06:34:36.121Z,630.93
2024-01-01T06:37:04.059Z,479.98
2024-01-01T06:39:31.676Z,105.16
2024-01-01T06:42:01.199Z,375.92
2024-01-01T06:44:28.839Z,3738.28
2024-01-01T06:46:56.525Z,3285.07
2024-01-01T06:49:24.210Z,2177.25
2024-01-01T06:51:51.904Z,23.99
2024-01-01T06:54:19.564Z,2854.15
2024-01-01T06:56:47.249Z,1730.67
2024-01-01T06:59:17.449Z,87.39
2024-01-01T07:01:45.186Z,1631.17
2024-01-01T07:04:13.063Z,2136.47
2024-01-01T07:06:43.034Z,557.88
2024-01-01T07:09:10.842Z,24.85
2024-01-01T07:11:38.519Z,1686.78
2024-01-01T07:14:06.248Z,1053.27
2024-01-01T07:16:35.329Z,30.46
2024-01-01T07:19:03.071Z,33.57
2024-01-01T07:21:30.758Z,75.61
2024-01-01T07:23:58.436Z,202.80
2024-01-01T07:26:26.094Z,451.79
2024-01-01T07:28:53.764Z,39.83
2024-01-01T07:31:21.429Z,420.96
2024-01-01T07:33:50.579Z,2425.17
2024-01-01T07:36:20.045Z,3026.36
2024-01-01T07:38:48.797Z,1808.26
2024-01-01T07:41:16.532Z,39.68
2024-01-01T07:43:44.230Z,23.82
2024-01-01T07:46:11.969Z,35.53
2024-01-01T07:48:39.727Z,37.54
2024-01-01T07:51:08.862Z,51.82
2024-01-01T07:53:36.510Z,114.51
2024-01-01T07:56:05.234Z,198.10
2024-01-01T07:58:32.906Z,283.80
2024-01-01T08:01:00.838Z,1740.27
2024-01-01T08:03:28.652Z,88.18
2024-01-01T08:05:56.401Z,490.71
2024-01-01T08:08:25.491Z,90.63
2024-01-01T08:10:53.291Z,1039.76
2024-01-01T08:13:21.107Z,65.99
2024-01-01T08:15:48.728Z,82.92
2024-01-01T08:18:16.462Z,132.03
2024-01-01T08:20:44.301Z,1615.53
2024-01-01T08:23:12.113Z,1559.44
2024-01-01T08:25:41.229Z,1333.80
2024-01-01T08:28:08.959Z,1238.21
2024-01-01T08:30:36.663Z,2448.54
2024-01-01T08:33:04.778Z,5644.79
2024-01-01T08:35:32.599Z,1425.90
2024-01-01T08:38:00.320Z,3079.59
2024-01-01T08:40:28.042Z,4215.35
2024-01-01T08:42:57.245Z,4087.77
2024-01-01T08:45:24.912Z,1741.59
2024-01-01T08:47:52.681Z,381.38
2024-01-01T08:50:20.570Z,1111.21
2024-01-01T08:52:48.291Z,1926.31
2024-01-01T08:55:16.107Z,428.27
2024-01-01T08:57:43.770Z,3134.02
2024-01-01T09:00:16.189Z,772.52
2024-01-01T09:02:45.342Z,1026.48
2024-01-01T09:05:15.432Z,4144.09
2024-01-01T09:07:43.184Z,1156.44
2024-01-01T09:10:11.085Z,993.96
2024-01-01T09:12:38.776Z,902.29
2024-01-01T09:15:07.550Z,1065.47
2024-01-01T09:17:36.752Z,3600.97
2024-01-01T09:20:05.729Z,6007.05
2024-01-01T09:22:33.481Z,5184.86
2024-01-01T09:25:01.319Z,2132.30
2024-01-01T09:27:29.011Z,2816.54
2024-01-01T09:29:56.678Z,706.73
2024-01-01T09:32:24.421Z,5139.13
2024-01-01T09:34:53.609Z,4102.96
2024-01-01T09:37:21.346Z,1580.89
2024-01-01T09:39:49.028Z,3552.81
2024-01-01T09:42:16.901Z,2688.04
2024-01-01T09:44:47.685Z,2079.23
2024-01-01T09:47:15.479Z,1981.92
2024-01-01T09:49:43.761Z,1939.85
2024-01-01T09:52:14.667Z,997.08
2024-01-01T09:54:42.749Z,1498.30
2024-01-01T09:57:10.417Z,1541.53
2024-01-01T09:59:39.758Z,2829.54
2024-01-01T10:02:09.148Z,813.38
2024-01-01T10:04:37.071Z,1304.33
2024-01-01T10:07:04.996Z,2405.91
2024-01-01T10:09:38.038Z,1296.84
2024-01-01T10:12:10.330Z,1287.97
2024-01-01T10:14:48.515Z,1915.66
2024-01-01T10:17:17.788Z,2357.32
2024-01-01T10:19:50.545Z,3017.52
2024-01-01T10:22:19.913Z,3304.48
2024-01-01T10:24:51.249Z,2613.49
2024-01-01T10:27:20.661Z,1001.66
2024-01-01T10:29:48.374Z,3549.84
2024-01-01T10:32:16.838Z,3200.10
2024-01-01T10:34:45.952Z,2867.26
2024-01-01T10:37:15.054Z,6078.55
2024-01-01T10:39:45.283Z,1269.18
2024-01-01T10:42:14.703Z,3459.04
2024-01-01T10:44:42.659Z,1323.50
2024-01-01T10:47:11.376Z,1832.47
2024-01-01T10:49:47.351Z,3808.12
2024-01-01T10:52:37.967Z,5334.97
2024-01-01T10:55:25.494Z,2643.47
2024-01-01T10:58:18.340Z,3323.61
2024-01-01T11:00:59.774Z,5061.09
2024-01-01T11:03:27.701Z,2047.79
2024-01-01T11:05:55.511Z,1519.52
2024-01-01T11:08:26.796Z,3229.33
2024-01-01T11:10:56.048Z,1823.18
2024-01-01T11:13:57.114Z,2913.17
2024-01-01T11:16:26.272Z,1694.95
2024-01-01T11:18:54.541Z,3656.44
2024-01-01T11:21:30.289Z,2899.76
2024-01-01T11:24:19.613Z,2271.82
2024-01-01T11:26:46.233Z,4842.34
2024-01-01T11:29:27.779Z,3052.07
2024-01-01T11:32:04.244Z,6266.04
2024-01-01T11:34:40.427Z,2040.01
2024-01-01T11:37:20.597Z,2574.00
2024-01-01T11:39:57.749Z,1482.96
2024-01-01T11:42:25.442Z,1847.46
2024-01-01T11:45:06.473Z,155.33
2024-01-01T11:47:35.718Z,2742.58
2024-01-01T11:50:05.397Z,1826.77
2024-01-01T11:52:33.756Z,895.66
2024-01-01T11:55:01.594Z,5505.36
2024-01-01T11:57:29.792Z,2699.80
2024-01-01T11:59:58.032Z,2976.49
2024-01-01T12:02:26.628Z,377.41
2024-01-01T12:04:56.348Z,672.66
2024-01-01T12:07:28.783Z,1204.29
2024-01-01T12:10:04.984Z,4072.39
2024-01-01T12:12:32.875Z,3394.50
2024-01-01T12:15:10.609Z,2267.95
2024-01-01T12:17:42.539Z,2840.20
2024-01-01T12:20:15.390Z,2014.07
2024-01-01T12:22:43.539Z,214.09
2024-01-01T12:25:15.160Z,1146.81
2024-01-01T12:27:43.013Z,1229.05
2024-01-01T12:30:24.005Z,1725.93
2024-01-01T12:32:51.847Z,1885.97
2024-01-01T12:35:21.199Z,3193.93
2024-01-01T12:37:49.026Z,3813.52
2024-01-01T12:40:16.754Z,1031.32
2024-01-01T12:42:45.882Z,91.74
2024-01-01T12:45:13.898Z,1003.73
2024-01-01T12:47:41.656Z,1150.31
2024-01-01T12:50:10.165Z,1956.88
2024-01-01T12:52:39.252Z,1120.99
2024-01-01T12:55:07.982Z,889.27
2024-01-01T12:57:35.706Z,921.20
2024-01-01T13:00:03.832Z,664.84
2024-01-01T13:02:31.529Z,1377.66
2024-01-01T13:04:59.516Z,819.03
2024-01-01T13:07:27.268Z,589.08
2024-01-01T13:09:56.294Z,640.37
2024-01-01T13:12:23.976Z,765.82
2024-01-01T13:14:51.668Z,133.84
2024-01-01T13:17:19.353Z,1277.31
2024-01-01T13:19:47.309Z,480.46
2024-01-01T13:22:15.244Z,757.43
2024-01-01T13:24:43.077Z,356.48
2024-01-01T13:27:17.418Z,315.24
2024-01-01T13:29:45.087Z,325.92
2024-01-01T13:32:13.779Z,416.53
2024-01-01T13:34:41.541Z,305.56
2024-01-01T13:37:09.343Z,755.23
2024-01-01T13:39:37.009Z,758.09
2024-01-01T13:42:06.791Z,769.23
2024-01-01T13:44:35.841Z,517.00
2024-01-01T13:47:03.661Z,593.30
2024-01-01T13:49:33.549Z,480.88
2024-01-01T13:52:01.191Z,249.71
2024-01-01T13:54:28.851Z,174.03
2024-01-01T13:56:56.506Z,679.73
2024-01-01T13:59:24.330Z,2083.22
2024-01-01T14:01:53.510Z,2029.95
2024-01-01T14:04:21.287Z,519.04
2024-01-01T14:06:48.927Z,3066.57
2024-01-01T14:09:19.790Z,92.73
2024-01-01T14:11:49.876Z,525.42
2024-01-01T14:14:18.166Z,1391.52
2024-01-01T14:16:46.854Z,966.29
2024-01-01T14:19:16.644Z,1164.14
2024-01-01T14:21:44.545Z,313.98
2024-01-01T14:24:12.258Z,409.92
2024-01-01T14:26:41.994Z,1713.88
2024-01-01T14:29:09.765Z,848.82
2024-01-01T14:31:37.456Z,791.66
2024-01-01T14:34:05.351Z,977.07
2024-01-01T14:36:34.422Z,870.74
2024-01-01T14:39:02.239Z,1042.35
2024-01-01T14:41:30.102Z,1692.02
2024-01-01T14:43:57.827Z,843.26
2024-01-01T14:46:25.605Z,926.47
2024-01-01T14:48:53.313Z,4618.02
2024-01-01T14:51:21.162Z,5943.27
2024-01-01T14:53:50.224Z,1611.51
2024-01-01T14:56:20.537Z,4543.91
2024-01-01T14:58:49.980Z,7260.54
2024-01-01T15:01:21.286Z,2471.58
2024-01-01T15:03:49.545Z,2724.16
2024-01-01T15:06:18.480Z,4462.00
2024-01-01T15:08:46.376Z,578.67
2024-01-01T15:11:15.428Z,957.47
2024-01-01T15:13:43.159Z,1093.79
2024-01-01T15:16:10.906Z,7162.28
2024-01-01T15:18:38.749Z,2859.05
2024-01-01T15:21:06.875Z,4136.09
2024-01-01T15:23:34.604Z,1230.90
2024-01-01T15:26:06.822Z,515.34
2024-01-01T15:28:36.612Z,1491.59
2024-01-01T15:31:04.729Z,807.68
2024-01-01T15:33:32.584Z,2321.56
2024-01-01T15:36:00.304Z,1433.80
2024-01-01T15:38:28.004Z,2130.42
2024-01-01T15:40:56.159Z,2155.28
2024-01-01T15:43:23.855Z,1250.43
2024-01-01T15:45:52.906Z,3326.73
2024-01-01T15:48:20.647Z,1439.69
2024-01-01T15:50:53.258Z,1570.23
2024-01-01T15:53:25.684Z,877.12
2024-01-01T15:55:53.439Z,2423.79
2024-01-01T15:58:21.292Z,970.93
2024-01-01T16:00:49.173Z,867.88
2024-01-01T16:03:18.215Z,2090.47
2024-01-01T16:05:46.219Z,1831.57
2024-01-01T16:08:14.011Z,1289.33
2024-01-01T16:10:42.185Z,2358.39
2024-01-01T16:13:09.845Z,907.33
2024-01-01T16:15:37.510Z,674.46
2024-01-01T16:18:05.282Z,734.27
2024-01-01T16:20:34.451Z,2437.81
2024-01-01T16:23:02.320Z,2647.51
2024-01-01T16:25:30.011Z,1190.58
2024-01-01T16:27:57.686Z,1048.53
2024-01-01T16:30:25.386Z,1868.45
2024-01-01T16:32:53.080Z,2565.11
2024-01-01T16:35:20.774Z,609.04
2024-01-01T16:37:51.183Z,1587.16
2024-01-01T16:40:19.702Z,1423.53
2024-01-01T16:42:47.782Z,521.99
2024-01-01T16:45:15.562Z,982.98
2024-01-01T16:47:43.418Z,254.01
2024-01-01T16:50:11.375Z,307.12
2024-01-01T16:52:39.052Z,157.60
2024-01-01T16:55:08.279Z,71.24
2024-01-01T16:57:35.976Z,40.28
2024-01-01T17:00:05.086Z,38.48
2024-01-01T17:02:32.934Z,51.39
2024-01-01T17:05:00.710Z,49.19
2024-01-01T17:07:28.373Z,51.66
2024-01-01T17:09:56.028Z,54.46
2024-01-01T17:12:25.088Z,57.26
2024-01-01T17:14:52.785Z,43.74
2024-01-01T17:17:20.435Z,76.70
2024-01-01T17:19:48.124Z,94.34
2024-01-01T17:22:15.763Z,76.81
2024-01-01T17:24:43.401Z,106.73
2024-01-01T17:27:13.611Z,68.11
2024-01-01T17:29:43.038Z,87.09
2024-01-01T17:32:10.807Z,54.98
2024-01-01T17:34:38.593Z,45.90
2024-01-01T17:37:09.009Z,57.29
2024-01-01T17:39:38.136Z,48.19
2024-01-01T17:42:06.054Z,37.58
2024-01-01T17:44:33.735Z,39.66
2024-01-01T17:47:02.779Z,35.10
2024-01-01T17:49:33.039Z,38.48
2024-01-01T17:52:00.681Z,34.33
2024-01-01T17:54:28.407Z,44.29
2024-01-01T17:56:56.360Z,46.44
2024-01-01T17:59:24.001Z,51.98
2024-01-01T18:01:51.636Z,46.65
2024-01-01T18:04:20.622Z,59.05
2024-01-01T18:06:48.515Z,48.74
2024-01-01T18:09:16.272Z,41.80
2024-01-01T18:11:43.895Z,24.85
2024-01-01T18:14:11.670Z,47.64
2024-01-01T18:16:39.383Z,11.44
2024-01-01T18:19:07.170Z,30.74
2024-01-01T18:21:39.002Z,20.51
2024-01-01T18:24:07.068Z,16.70
2024-01-01T18:26:34.724Z,18.20
2024-01-01T18:29:02.418Z,20.31
2024-01-01T18:31:30.057Z,24.22
2024-01-01T18:33:57.687Z,19.32
2024-01-01T18:36:25.367Z,26.87
2024-01-01T18:38:54.352Z,21.05
2024-01-01T18:41:21.986Z,28.39
2024-01-01T18:43:49.649Z,24.52
2024-01-01T18:46:17.303Z,27.03
2024-01-01T18:48:45.182Z,30.96
2024-01-01T18:51:13.217Z,37.07
2024-01-01T18:53:41.203Z,38.40
2024-01-01T18:56:10.257Z,70.53
2024-01-01T18:58:37.928Z,71.13
2024-01-01T19:01:06.168Z,74.72
2024-01-01T19:03:33.843Z,76.82
2024-01-01T19:06:01.672Z,53.48
2024-01-01T19:08:29.397Z,55.77
2024-01-01T19:10:57.074Z,57.30
2024-01-01T19:13:26.100Z,49.10
2024-01-01T19:15:54.065Z,191.84
2024-01-01T19:18:22.060Z,290.43
2024-01-01T19:20:49.851Z,379.43
2024-01-01T19:23:17.626Z,343.11
2024-01-01T19:25:46.234Z,269.84
2024-01-01T19:28:13.908Z,188.35
2024-01-01T19:30:42.940Z,236.66
2024-01-01T19:33:11.405Z,214.84
2024-01-01T19:35:39.339Z,641.74
2024-01-01T19:38:07.035Z,236.13
2024-01-01T19:40:34.738Z,151.43
2024-01-01T19:43:02.413Z,193.89
2024-01-01T19:45:30.059Z,243.54
2024-01-01T19:47:59.129Z,112.62
2024-01-01T19:50:26.881Z,282.35
2024-01-01T19:52:54.617Z,105.03
2024-01-01T19:55:22.351Z,1183.15
2024-01-01T19:57:50.023Z,317.44
2024-01-01T20:00:18.565Z,1631.80
2024-01-01T20:02:46.234Z,760.01
2024-01-01T20:05:15.805Z,1087.74
2024-01-01T20:07:43.502Z,754.77
2024-01-01T20:10:11.197Z,813.80
2024-01-01T20:12:38.924Z,2813.61
2024-01-01T20:15:07.270Z,4888.12
2024-01-01T20:17:35.030Z,3272.24
2024-01-01T20:20:02.842Z,1098.00
2024-01-01T20:22:32.023Z,648.54
2024-01-01T20:24:59.744Z,1126.59
2024-01-01T20:27:27.515Z,1258.38
2024-01-01T20:29:55.149Z,590.25
2024-01-01T20:32:23.070Z,1010.70
2024-01-01T20:34:50.912Z,454.66
2024-01-01T20:37:18.570Z,1705.89
2024-01-01T20:39:47.567Z,310.12
2024-01-01T20:42:15.212Z,1936.43
2024-01-01T20:44:42.869Z,1484.80
2024-01-01T20:47:10.604Z,933.94
2024-01-01T20:49:38.297Z,202.98
2024-01-01T20:52:12.349Z,105.37
2024-01-01T20:54:48.788Z,84.13
2024-01-01T20:57:16.422Z,105.74
2024-01-01T20:59:44.292Z,165.15
2024-01-01T21:02:12.001Z,116.81
2024-01-01T21:04:39.965Z,41.79
2024-01-01T21:07:07.717Z,28.73
2024-01-01T21:09:35.349Z,28.60
2024-01-01T21:12:04.986Z,15.51
2024-01-01T21:14:32.744Z,15.85
2024-01-01T21:17:00.433Z,14.94
2024-01-01T21:19:28.177Z,30.30
2024-01-01T21:21:55.855Z,39.90
2024-01-01T21:24:23.490Z,39.18
2024-01-01T21:26:51.112Z,37.96
2024-01-01T21:29:20.126Z,49.89
2024-01-01T21:31:47.775Z,37.13
2024-01-01T21:34:15.729Z,33.57
2024-01-01T21:36:43.342Z,43.13
2024-01-01T21:39:10.960Z,40.28
2024-01-01T21:41:38.586Z,36.84
2024-01-01T21:44:06.229Z,81.77
2024-01-01T21:46:40.399Z,100.63
2024-01-01T21:49:08.214Z,76.41
2024-01-01T21:51:35.953Z,96.31
2024-01-01T21:54:03.727Z,107.51
2024-01-01T21:56:31.489Z,74.58
2024-01-01T21:58:59.145Z,82.02
2024-01-01T22:01:26.777Z,135.48
2024-01-01T22:03:55.758Z,126.56
2024-01-01T22:06:23.767Z,82.56
2024-01-01T22:08:51.508Z,150.04
2024-01-01T22:11:20.277Z,126.90
2024-01-01T22:13:48.026Z,106.55
2024-01-01T22:16:15.650Z,134.53
2024-01-01T22:18:43.361Z,203.36
2024-01-01T22:21:17.553Z,890.87
2024-01-01T22:23:45.333Z,2889.41
2024-01-01T22:26:13.851Z,1084.55
2024-01-01T22:28:43.586Z,3161.82
2024-01-01T22:31:13.159Z,6958.67
2024-01-01T22:33:42.736Z,5284.41
2024-01-01T22:36:10.668Z,7098.81
2024-01-01T22:38:39.759Z,3772.57
2024-01-01T22:41:07.825Z,7768.35
2024-01-01T22:43:35.740Z,4912.67
2024-01-01T22:46:03.908Z,2807.59
2024-01-01T22:48:32.938Z,5770.01
2024-01-01T22:51:00.670Z,4136.63
2024-01-01T22:53:28.347Z,4163.00
2024-01-01T22:55:57.407Z,2422.76
2024-01-01T22:58:25.080Z,2807.66
2024-01-01T23:00:52.753Z,1770.28
2024-01-01T23:03:20.524Z,3242.69
2024-01-01T23:05:48.428Z,1382.00
2024-01-01T23:08:16.211Z,1813.32
2024-01-01T23:10:44.306Z,282.71
2024-01-01T23:13:13.430Z,372.94
2024-01-01T23:15:41.086Z,1279.42
2024-01-01T23:18:08.875Z,4144.85
2024-01-01T23:20:36.648Z,2755.38
2024-01-01T23:23:04.587Z,851.12
2024-01-01T23:25:43.442Z,598.43
2024-01-01T23:28:19.269Z,2253.15
2024-01-01T23:30:46.969Z,436.61
2024-01-01T23:33:14.942Z,271.62
2024-01-01T23:35:43.056Z,284.28
2024-01-01T23:38:10.740Z,840.99
2024-01-01T23:40:38.421Z,845.39
2024-01-01T23:43:06.233Z,398.25
2024-01-01T23:45:35.468Z,117.85
2024-01-01T23:48:03.486Z,116.04
2024-01-01T23:50:31.166Z,156.21
2024-01-01T23:52:58.878Z,1174.08
2024-01-01T23:55:26.595Z,697.67
2024-01-01T23:57:54.225Z,97.78
